sensor_id;sensor_type;location;lat;lon;timestamp;P1;durP1;ratioP1;P2;durP2;ratioP2
41719;SDS011;27405;53.316;-6.294;2024-03-08T00:00:32;62.67;;;36.78;;
41719;SDS011;27405;53.316;-6.294;2024-03-08T00:02:58;61.97;;;34.50;;
41719;SDS011;27405;53.316;-6.294;2024-03-08T00:05:26;62.55;;;34.63;;
41719;SDS011;27405;53.316;-6.294;2024-03-08T00:07:52;62.20;;;34.53;;
41719;SDS011;27405;53.316;-6.294;2024-03-08T00:10:18;67.20;;;36.13;;
41719;SDS011;27405;53.316;-6.294;2024-03-08T00:12:46;67.75;;;35.30;;
41719;SDS011;27405;53.316;-6.294;2024-03-08T00:15:13;66.55;;;34.92;;
41719;SDS011;27405;53.316;-6.294;2024-03-08T00:17:40;65.88;;;34.35;;
41719;SDS011;27405;53.316;-6.294;2024-03-08T00:20:07;63.47;;;34.03;;
41719;SDS011;27405;53.316;-6.294;2024-03-08T00:22:39;63.67;;;31.95;;
41719;SDS011;27405;53.316;-6.294;2024-03-08T00:25:06;59.53;;;34.28;;
41719;SDS011;27405;53.316;-6.294;2024-03-08T00:27:33;59.08;;;31.95;;
41719;SDS011;27405;53.316;-6.294;2024-03-08T00:30:00;58.45;;;31.88;;
41719;SDS011;27405;53.316;-6.294;2024-03-08T00:32:26;58.00;;;30.83;;
41719;SDS011;27405;53.316;-6.294;2024-03-08T00:34:56;55.30;;;31.83;;
41719;SDS011;27405;53.316;-6.294;2024-03-08T00:37:23;55.95;;;31.38;;
41719;SDS011;27405;53.316;-6.294;2024-03-08T00:39:50;58.65;;;29.95;;
41719;SDS011;27405;53.316;-6.294;2024-03-08T00:42:17;54.67;;;30.33;;
41719;SDS011;27405;53.316;-6.294;2024-03-08T00:44:43;58.85;;;30.98;;
41719;SDS011;27405;53.316;-6.294;2024-03-08T00:47:09;55.92;;;30.25;;
41719;SDS011;27405;53.316;-6.294;2024-03-08T00:49:36;56.70;;;30.63;;
41719;SDS011;27405;53.316;-6.294;2024-03-08T00:52:06;60.85;;;32.92;;
41719;SDS011;27405;53.316;-6.294;2024-03-08T00:54:32;59.10;;;33.60;;
41719;SDS011;27405;53.316;-6.294;2024-03-08T00:56:58;64.05;;;33.65;;
41719;SDS011;27405;53.316;-6.294;2024-03-08T00:59:27;59.33;;;33.80;;
41719;SDS011;27405;53.316;-6.294;2024-03-08T01:01:54;59.50;;;32.78;;
41719;SDS011;27405;53.316;-6.294;2024-03-08T01:04:20;62.08;;;31.88;;
41719;SDS011;27405;53.316;-6.294;2024-03-08T01:06:46;61.33;;;32.15;;
41719;SDS011;27405;53.316;-6.294;2024-03-08T01:09:13;58.53;;;31.27;;
41719;SDS011;27405;53.316;-6.294;2024-03-08T01:11:39;58.28;;;30.52;;
41719;SDS011;27405;53.316;-6.294;2024-03-08T01:14:07;55.60;;;31.25;;
41719;SDS011;27405;53.316;-6.294;2024-03-08T01:16:32;57.33;;;30.58;;
41719;SDS011;27405;53.316;-6.294;2024-03-08T01:18:58;60.50;;;31.13;;
41719;SDS011;27405;53.316;-6.294;2024-03-08T01:21:24;61.42;;;31.10;;
41719;SDS011;27405;53.316;-6.294;2024-03-08T01:23:51;58.38;;;30.65;;
41719;SDS011;27405;53.316;-6.294;2024-03-08T01:26:17;54.08;;;30.05;;
41719;SDS011;27405;53.316;-6.294;2024-03-08T01:28:43;59.58;;;31.25;;
41719;SDS011;27405;53.316;-6.294;2024-03-08T01:31:08;55.22;;;30.77;;
41719;SDS011;27405;53.316;-6.294;2024-03-08T01:33:35;62.97;;;32.00;;
41719;SDS011;27405;53.316;-6.294;2024-03-08T01:36:01;57.17;;;31.83;;
41719;SDS011;27405;53.316;-6.294;2024-03-08T01:38:27;56.22;;;30.98;;
41719;SDS011;27405;53.316;-6.294;2024-03-08T01:40:53;51.25;;;29.65;;
41719;SDS011;27405;53.316;-6.294;2024-03-08T01:43:25;55.60;;;30.15;;
41719;SDS011;27405;53.316;-6.294;2024-03-08T01:45:53;54.55;;;29.50;;
41719;SDS011;27405;53.316;-6.294;2024-03-08T01:48:20;55.60;;;29.95;;
41719;SDS011;27405;53.316;-6.294;2024-03-08T01:53:17;53.05;;;28.85;;
41719;SDS011;27405;53.316;-6.294;2024-03-08T01:55:47;48.97;;;28.23;;
41719;SDS011;27405;53.316;-6.294;2024-03-08T01:58:14;58.00;;;28.75;;
41719;SDS011;27405;53.316;-6.294;2024-03-08T02:00:44;49.53;;;27.67;;
41719;SDS011;27405;53.316;-6.294;2024-03-08T02:03:12;55.60;;;29.00;;
41719;SDS011;27405;53.316;-6.294;2024-03-08T02:05:38;57.40;;;28.65;;
41719;SDS011;27405;53.316;-6.294;2024-03-08T02:08:06;50.10;;;29.08;;
41719;SDS011;27405;53.316;-6.294;2024-03-08T02:10:33;53.78;;;28.25;;
41719;SDS011;27405;53.316;-6.294;2024-03-08T02:13:02;44.85;;;26.90;;
41719;SDS011;27405;53.316;-6.294;2024-03-08T02:18:16;54.55;;;27.38;;
41719;SDS011;27405;53.316;-6.294;2024-03-08T02:20:46;52.40;;;25.80;;
41719;SDS011;27405;53.316;-6.294;2024-03-08T02:23:17;50.38;;;27.52;;
41719;SDS011;27405;53.316;-6.294;2024-03-08T02:25:44;42.80;;;26.52;;
41719;SDS011;27405;53.316;-6.294;2024-03-08T02:28:11;49.83;;;27.10;;
41719;SDS011;27405;53.316;-6.294;2024-03-08T02:30:38;46.97;;;25.73;;
41719;SDS011;27405;53.316;-6.294;2024-03-08T02:33:05;46.15;;;26.30;;
41719;SDS011;27405;53.316;-6.294;2024-03-08T02:38:00;45.10;;;24.13;;
41719;SDS011;27405;53.316;-6.294;2024-03-08T02:40:28;50.90;;;25.88;;
41719;SDS011;27405;53.316;-6.294;2024-03-08T02:42:54;51.60;;;27.50;;
41719;SDS011;27405;53.316;-6.294;2024-03-08T02:45:20;49.60;;;28.00;;
41719;SDS011;27405;53.316;-6.294;2024-03-08T02:51:22;53.80;;;27.25;;
41719;SDS011;27405;53.316;-6.294;2024-03-08T02:53:48;53.40;;;26.95;;
41719;SDS011;27405;53.316;-6.294;2024-03-08T02:56:16;51.75;;;27.17;;
41719;SDS011;27405;53.316;-6.294;2024-03-08T02:58:43;50.25;;;27.02;;
41719;SDS011;27405;53.316;-6.294;2024-03-08T03:01:13;48.55;;;26.55;;
41719;SDS011;27405;53.316;-6.294;2024-03-08T03:03:41;51.53;;;27.05;;
41719;SDS011;27405;53.316;-6.294;2024-03-08T03:06:07;44.70;;;24.45;;
41719;SDS011;27405;53.316;-6.294;2024-03-08T03:08:33;50.33;;;25.27;;
41719;SDS011;27405;53.316;-6.294;2024-03-08T03:10:59;52.70;;;27.27;;
41719;SDS011;27405;53.316;-6.294;2024-03-08T03:13:25;53.58;;;24.85;;
41719;SDS011;27405;53.316;-6.294;2024-03-08T03:15:51;46.28;;;24.92;;
41719;SDS011;27405;53.316;-6.294;2024-03-08T03:18:17;43.90;;;26.85;;
41719;SDS011;27405;53.316;-6.294;2024-03-08T03:23:12;47.10;;;24.90;;
41719;SDS011;27405;53.316;-6.294;2024-03-08T03:25:39;47.00;;;24.92;;
41719;SDS011;27405;53.316;-6.294;2024-03-08T03:28:06;50.10;;;26.02;;
41719;SDS011;27405;53.316;-6.294;2024-03-08T03:30:33;44.78;;;24.92;;
41719;SDS011;27405;53.316;-6.294;2024-03-08T03:32:59;44.00;;;25.63;;
41719;SDS011;27405;53.316;-6.294;2024-03-08T03:35:26;48.72;;;24.90;;
41719;SDS011;27405;53.316;-6.294;2024-03-08T03:37:54;42.83;;;24.83;;
41719;SDS011;27405;53.316;-6.294;2024-03-08T03:40:35;46.42;;;25.90;;
41719;SDS011;27405;53.316;-6.294;2024-03-08T03:43:05;43.50;;;23.80;;
41719;SDS011;27405;53.316;-6.294;2024-03-08T03:45:32;44.05;;;23.38;;
41719;SDS011;27405;53.316;-6.294;2024-03-08T03:48:02;45.33;;;25.00;;
41719;SDS011;27405;53.316;-6.294;2024-03-08T03:50:28;49.28;;;25.10;;
41719;SDS011;27405;53.316;-6.294;2024-03-08T03:52:54;43.95;;;24.48;;
41719;SDS011;27405;53.316;-6.294;2024-03-08T03:55:20;42.38;;;23.80;;
41719;SDS011;27405;53.316;-6.294;2024-03-08T03:57:47;40.70;;;22.60;;
41719;SDS011;27405;53.316;-6.294;2024-03-08T04:00:13;44.97;;;23.58;;
41719;SDS011;27405;53.316;-6.294;2024-03-08T04:02:39;51.40;;;25.52;;
41719;SDS011;27405;53.316;-6.294;2024-03-08T04:05:08;43.03;;;22.92;;
41719;SDS011;27405;53.316;-6.294;2024-03-08T04:07:35;42.70;;;23.08;;
41719;SDS011;27405;53.316;-6.294;2024-03-08T04:10:02;47.88;;;23.02;;
41719;SDS011;27405;53.316;-6.294;2024-03-08T04:12:29;38.75;;;22.48;;
41719;SDS011;27405;53.316;-6.294;2024-03-08T04:14:55;38.13;;;22.63;;
41719;SDS011;27405;53.316;-6.294;2024-03-08T04:17:21;43.58;;;23.00;;
41719;SDS011;27405;53.316;-6.294;2024-03-08T04:19:49;45.78;;;23.08;;
41719;SDS011;27405;53.316;-6.294;2024-03-08T04:22:15;42.17;;;22.58;;
41719;SDS011;27405;53.316;-6.294;2024-03-08T04:24:43;42.90;;;22.90;;
41719;SDS011;27405;53.316;-6.294;2024-03-08T04:27:09;43.63;;;24.00;;
41719;SDS011;27405;53.316;-6.294;2024-03-08T04:29:35;39.53;;;22.40;;
41719;SDS011;27405;53.316;-6.294;2024-03-08T04:32:05;39.70;;;22.08;;
41719;SDS011;27405;53.316;-6.294;2024-03-08T04:37:53;43.95;;;22.02;;
41719;SDS011;27405;53.316;-6.294;2024-03-08T04:40:19;39.35;;;21.45;;
41719;SDS011;27405;53.316;-6.294;2024-03-08T04:42:45;40.45;;;22.02;;
41719;SDS011;27405;53.316;-6.294;2024-03-08T04:45:11;41.67;;;22.60;;
41719;SDS011;27405;53.316;-6.294;2024-03-08T04:47:37;45.30;;;21.00;;
41719;SDS011;27405;53.316;-6.294;2024-03-08T04:50:03;45.80;;;21.45;;
41719;SDS011;27405;53.316;-6.294;2024-03-08T04:52:29;42.72;;;23.30;;
41719;SDS011;27405;53.316;-6.294;2024-03-08T04:54:55;42.60;;;21.75;;
41719;SDS011;27405;53.316;-6.294;2024-03-08T04:57:21;42.65;;;21.58;;
41719;SDS011;27405;53.316;-6.294;2024-03-08T04:59:47;41.92;;;23.27;;
41719;SDS011;27405;53.316;-6.294;2024-03-08T05:02:13;40.35;;;21.20;;
41719;SDS011;27405;53.316;-6.294;2024-03-08T05:04:39;43.03;;;21.35;;
41719;SDS011;27405;53.316;-6.294;2024-03-08T05:07:07;42.03;;;22.27;;
41719;SDS011;27405;53.316;-6.294;2024-03-08T05:09:33;44.10;;;22.45;;
41719;SDS011;27405;53.316;-6.294;2024-03-08T05:12:01;48.47;;;21.92;;
41719;SDS011;27405;53.316;-6.294;2024-03-08T05:14:27;41.97;;;21.65;;
41719;SDS011;27405;53.316;-6.294;2024-03-08T05:16:53;49.20;;;22.52;;
41719;SDS011;27405;53.316;-6.294;2024-03-08T05:19:19;40.60;;;21.98;;
41719;SDS011;27405;53.316;-6.294;2024-03-08T05:21:46;42.05;;;22.15;;
41719;SDS011;27405;53.316;-6.294;2024-03-08T05:24:13;41.13;;;20.60;;
41719;SDS011;27405;53.316;-6.294;2024-03-08T05:26:41;50.13;;;22.60;;
41719;SDS011;27405;53.316;-6.294;2024-03-08T05:29:07;44.90;;;22.88;;
41719;SDS011;27405;53.316;-6.294;2024-03-08T05:31:47;43.72;;;21.15;;
41719;SDS011;27405;53.316;-6.294;2024-03-08T05:34:14;43.20;;;21.80;;
41719;SDS011;27405;53.316;-6.294;2024-03-08T05:36:45;42.63;;;21.83;;
41719;SDS011;27405;53.316;-6.294;2024-03-08T05:39:15;40.60;;;21.50;;
41719;SDS011;27405;53.316;-6.294;2024-03-08T05:41:42;39.88;;;21.38;;
41719;SDS011;27405;53.316;-6.294;2024-03-08T05:44:09;42.45;;;21.60;;
41719;SDS011;27405;53.316;-6.294;2024-03-08T05:46:36;44.30;;;21.65;;
41719;SDS011;27405;53.316;-6.294;2024-03-08T05:49:02;40.95;;;20.65;;
41719;SDS011;27405;53.316;-6.294;2024-03-08T05:51:33;39.45;;;20.13;;
41719;SDS011;27405;53.316;-6.294;2024-03-08T05:54:03;43.45;;;22.02;;
41719;SDS011;27405;53.316;-6.294;2024-03-08T05:56:36;39.25;;;20.95;;
41719;SDS011;27405;53.316;-6.294;2024-03-08T05:59:03;39.80;;;21.67;;
41719;SDS011;27405;53.316;-6.294;2024-03-08T06:01:29;39.83;;;20.73;;
41719;SDS011;27405;53.316;-6.294;2024-03-08T06:03:56;34.80;;;18.38;;
41719;SDS011;27405;53.316;-6.294;2024-03-08T06:06:22;37.92;;;18.83;;
41719;SDS011;27405;53.316;-6.294;2024-03-08T06:08:49;36.30;;;19.45;;
41719;SDS011;27405;53.316;-6.294;2024-03-08T06:11:16;35.35;;;18.98;;
41719;SDS011;27405;53.316;-6.294;2024-03-08T06:13:43;34.90;;;20.35;;
41719;SDS011;27405;53.316;-6.294;2024-03-08T06:16:10;41.78;;;21.23;;
41719;SDS011;27405;53.316;-6.294;2024-03-08T06:18:36;35.00;;;19.55;;
41719;SDS011;27405;53.316;-6.294;2024-03-08T06:21:06;48.22;;;21.50;;
41719;SDS011;27405;53.316;-6.294;2024-03-08T06:25:58;38.55;;;20.70;;
41719;SDS011;27405;53.316;-6.294;2024-03-08T06:28:24;38.58;;;21.30;;
41719;SDS011;27405;53.316;-6.294;2024-03-08T06:34:12;40.38;;;20.30;;
41719;SDS011;27405;53.316;-6.294;2024-03-08T06:36:40;42.17;;;21.95;;
41719;SDS011;27405;53.316;-6.294;2024-03-08T06:39:06;43.63;;;21.42;;
41719;SDS011;27405;53.316;-6.294;2024-03-08T06:41:35;38.08;;;21.08;;
41719;SDS011;27405;53.316;-6.294;2024-03-08T06:44:01;39.80;;;21.65;;
41719;SDS011;27405;53.316;-6.294;2024-03-08T06:46:28;44.15;;;21.67;;
41719;SDS011;27405;53.316;-6.294;2024-03-08T06:48:54;36.45;;;18.92;;
41719;SDS011;27405;53.316;-6.294;2024-03-08T06:51:20;38.83;;;21.17;;
41719;SDS011;27405;53.316;-6.294;2024-03-08T06:53:46;37.55;;;19.75;;
41719;SDS011;27405;53.316;-6.294;2024-03-08T06:56:11;39.28;;;20.77;;
41719;SDS011;27405;53.316;-6.294;2024-03-08T06:58:37;35.80;;;19.38;;
41719;SDS011;27405;53.316;-6.294;2024-03-08T07:01:03;38.95;;;20.42;;
41719;SDS011;27405;53.316;-6.294;2024-03-08T07:03:32;39.03;;;20.73;;
41719;SDS011;27405;53.316;-6.294;2024-03-08T07:05:58;36.95;;;21.33;;
41719;SDS011;27405;53.316;-6.294;2024-03-08T07:08:26;41.45;;;20.35;;
41719;SDS011;27405;53.316;-6.294;2024-03-08T07:10:53;45.47;;;21.75;;
41719;SDS011;27405;53.316;-6.294;2024-03-08T07:16:41;35.45;;;19.98;;
41719;SDS011;27405;53.316;-6.294;2024-03-08T07:19:07;35.67;;;19.50;;
41719;SDS011;27405;53.316;-6.294;2024-03-08T07:21:33;34.97;;;20.20;;
41719;SDS011;27405;53.316;-6.294;2024-03-08T07:23:59;39.80;;;20.48;;
41719;SDS011;27405;53.316;-6.294;2024-03-08T07:26:25;38.40;;;19.65;;
41719;SDS011;27405;53.316;-6.294;2024-03-08T07:28:52;40.72;;;21.10;;
41719;SDS011;27405;53.316;-6.294;2024-03-08T07:31:22;41.95;;;20.75;;
41719;SDS011;27405;53.316;-6.294;2024-03-08T07:33:50;36.97;;;20.08;;
41719;SDS011;27405;53.316;-6.294;2024-03-08T07:36:18;38.65;;;19.00;;
41719;SDS011;27405;53.316;-6.294;2024-03-08T07:38:44;48.58;;;21.52;;
41719;SDS011;27405;53.316;-6.294;2024-03-08T07:41:12;38.90;;;20.50;;
41719;SDS011;27405;53.316;-6.294;2024-03-08T07:43:38;40.83;;;21.42;;
41719;SDS011;27405;53.316;-6.294;2024-03-08T07:46:04;36.22;;;19.13;;
41719;SDS011;27405;53.316;-6.294;2024-03-08T07:48:30;39.55;;;20.38;;
41719;SDS011;27405;53.316;-6.294;2024-03-08T07:50:56;42.58;;;20.83;;
41719;SDS011;27405;53.316;-6.294;2024-03-08T07:53:22;34.90;;;20.23;;
41719;SDS011;27405;53.316;-6.294;2024-03-08T07:58:17;42.90;;;22.33;;
41719;SDS011;27405;53.316;-6.294;2024-03-08T08:04:05;39.33;;;20.65;;
41719;SDS011;27405;53.316;-6.294;2024-03-08T08:06:32;35.90;;;19.38;;
41719;SDS011;27405;53.316;-6.294;2024-03-08T08:12:19;39.63;;;20.08;;
41719;SDS011;27405;53.316;-6.294;2024-03-08T08:14:46;35.80;;;19.38;;
41719;SDS011;27405;53.316;-6.294;2024-03-08T08:17:12;37.42;;;20.02;;
41719;SDS011;27405;53.316;-6.294;2024-03-08T08:19:38;41.03;;;19.42;;
41719;SDS011;27405;53.316;-6.294;2024-03-08T08:22:08;36.70;;;19.88;;
41719;SDS011;27405;53.316;-6.294;2024-03-08T08:24:34;37.90;;;19.13;;
41719;SDS011;27405;53.316;-6.294;2024-03-08T08:27:02;35.65;;;18.95;;
41719;SDS011;27405;53.316;-6.294;2024-03-08T08:29:28;33.30;;;18.70;;
41719;SDS011;27405;53.316;-6.294;2024-03-08T08:31:57;39.65;;;19.45;;
41719;SDS011;27405;53.316;-6.294;2024-03-08T08:34:24;37.17;;;19.30;;
41719;SDS011;27405;53.316;-6.294;2024-03-08T08:36:51;32.92;;;17.88;;
41719;SDS011;27405;53.316;-6.294;2024-03-08T08:39:18;36.95;;;19.30;;
41719;SDS011;27405;53.316;-6.294;2024-03-08T08:41:44;37.88;;;19.10;;
41719;SDS011;27405;53.316;-6.294;2024-03-08T08:44:10;38.50;;;19.20;;
41719;SDS011;27405;53.316;-6.294;2024-03-08T08:46:37;36.22;;;18.98;;
41719;SDS011;27405;53.316;-6.294;2024-03-08T08:49:04;35.67;;;18.75;;
41719;SDS011;27405;53.316;-6.294;2024-03-08T08:51:31;35.75;;;19.77;;
41719;SDS011;27405;53.316;-6.294;2024-03-08T08:56:26;37.45;;;20.10;;
41719;SDS011;27405;53.316;-6.294;2024-03-08T08:58:54;36.97;;;20.50;;
41719;SDS011;27405;53.316;-6.294;2024-03-08T09:01:20;35.88;;;20.20;;
41719;SDS011;27405;53.316;-6.294;2024-03-08T09:03:47;35.30;;;20.30;;
41719;SDS011;27405;53.316;-6.294;2024-03-08T09:06:13;38.95;;;20.75;;
41719;SDS011;27405;53.316;-6.294;2024-03-08T09:08:39;40.08;;;23.15;;
41719;SDS011;27405;53.316;-6.294;2024-03-08T09:11:05;41.00;;;22.58;;
41719;SDS011;27405;53.316;-6.294;2024-03-08T09:13:32;44.30;;;23.25;;
41719;SDS011;27405;53.316;-6.294;2024-03-08T09:15:59;40.15;;;23.25;;
41719;SDS011;27405;53.316;-6.294;2024-03-08T09:18:25;44.03;;;24.38;;
41719;SDS011;27405;53.316;-6.294;2024-03-08T09:20:52;40.95;;;23.65;;
41719;SDS011;27405;53.316;-6.294;2024-03-08T09:23:22;45.33;;;26.42;;
41719;SDS011;27405;53.316;-6.294;2024-03-08T09:29:09;45.83;;;24.23;;
41719;SDS011;27405;53.316;-6.294;2024-03-08T09:34:58;41.40;;;23.95;;
41719;SDS011;27405;53.316;-6.294;2024-03-08T09:37:26;41.83;;;24.73;;
41719;SDS011;27405;53.316;-6.294;2024-03-08T09:39:52;43.72;;;24.80;;
41719;SDS011;27405;53.316;-6.294;2024-03-08T09:42:18;42.72;;;24.58;;
41719;SDS011;27405;53.316;-6.294;2024-03-08T09:44:47;44.03;;;24.30;;
41719;SDS011;27405;53.316;-6.294;2024-03-08T09:50:36;48.20;;;26.10;;
41719;SDS011;27405;53.316;-6.294;2024-03-08T09:53:02;43.97;;;26.33;;
41719;SDS011;27405;53.316;-6.294;2024-03-08T09:55:28;45.70;;;24.67;;
41719;SDS011;27405;53.316;-6.294;2024-03-08T09:57:59;46.78;;;26.63;;
41719;SDS011;27405;53.316;-6.294;2024-03-08T10:00:45;56.65;;;27.30;;
41719;SDS011;27405;53.316;-6.294;2024-03-08T10:03:11;46.50;;;26.55;;
41719;SDS011;27405;53.316;-6.294;2024-03-08T10:05:40;49.90;;;27.95;;
41719;SDS011;27405;53.316;-6.294;2024-03-08T10:08:07;52.40;;;27.55;;
41719;SDS011;27405;53.316;-6.294;2024-03-08T10:10:36;41.80;;;26.45;;
41719;SDS011;27405;53.316;-6.294;2024-03-08T10:13:09;44.80;;;26.70;;
41719;SDS011;27405;53.316;-6.294;2024-03-08T10:15:37;45.35;;;26.45;;
41719;SDS011;27405;53.316;-6.294;2024-03-08T10:18:05;40.85;;;25.35;;
41719;SDS011;27405;53.316;-6.294;2024-03-08T10:20:32;44.95;;;26.38;;
41719;SDS011;27405;53.316;-6.294;2024-03-08T10:22:59;47.58;;;25.60;;
41719;SDS011;27405;53.316;-6.294;2024-03-08T10:25:28;44.72;;;25.85;;
41719;SDS011;27405;53.316;-6.294;2024-03-08T10:27:55;41.45;;;23.73;;
41719;SDS011;27405;53.316;-6.294;2024-03-08T10:30:21;41.80;;;25.23;;
41719;SDS011;27405;53.316;-6.294;2024-03-08T10:32:48;43.40;;;24.65;;
41719;SDS011;27405;53.316;-6.294;2024-03-08T10:35:14;41.17;;;23.55;;
41719;SDS011;27405;53.316;-6.294;2024-03-08T10:37:48;46.17;;;24.27;;
41719;SDS011;27405;53.316;-6.294;2024-03-08T10:40:18;42.28;;;24.23;;
41719;SDS011;27405;53.316;-6.294;2024-03-08T10:42:54;36.15;;;22.42;;
41719;SDS011;27405;53.316;-6.294;2024-03-08T10:45:31;39.33;;;22.25;;
41719;SDS011;27405;53.316;-6.294;2024-03-08T10:50:48;39.10;;;24.35;;
41719;SDS011;27405;53.316;-6.294;2024-03-08T10:53:17;47.63;;;24.80;;
41719;SDS011;27405;53.316;-6.294;2024-03-08T10:55:46;41.95;;;24.15;;
41719;SDS011;27405;53.316;-6.294;2024-03-08T10:58:13;45.28;;;25.48;;
41719;SDS011;27405;53.316;-6.294;2024-03-08T11:00:40;49.45;;;26.92;;
41719;SDS011;27405;53.316;-6.294;2024-03-08T11:03:07;45.28;;;27.60;;
41719;SDS011;27405;53.316;-6.294;2024-03-08T11:05:54;46.53;;;28.10;;
41719;SDS011;27405;53.316;-6.294;2024-03-08T11:08:20;51.05;;;29.70;;
41719;SDS011;27405;53.316;-6.294;2024-03-08T11:10:48;48.17;;;28.98;;
41719;SDS011;27405;53.316;-6.294;2024-03-08T11:13:35;52.58;;;30.20;;
41719;SDS011;27405;53.316;-6.294;2024-03-08T11:16:11;51.10;;;29.13;;
41719;SDS011;27405;53.316;-6.294;2024-03-08T11:21:35;51.08;;;29.52;;
41719;SDS011;27405;53.316;-6.294;2024-03-08T11:24:13;49.65;;;28.85;;
41719;SDS011;27405;53.316;-6.294;2024-03-08T11:26:41;49.83;;;28.10;;
41719;SDS011;27405;53.316;-6.294;2024-03-08T11:32:27;47.60;;;27.55;;
41719;SDS011;27405;53.316;-6.294;2024-03-08T11:34:55;43.75;;;27.08;;
41719;SDS011;27405;53.316;-6.294;2024-03-08T11:37:21;43.25;;;27.52;;
41719;SDS011;27405;53.316;-6.294;2024-03-08T11:39:47;50.60;;;29.33;;
41719;SDS011;27405;53.316;-6.294;2024-03-08T11:42:18;43.35;;;27.05;;
41719;SDS011;27405;53.316;-6.294;2024-03-08T11:44:49;47.70;;;28.02;;
41719;SDS011;27405;53.316;-6.294;2024-03-08T11:50:39;47.33;;;27.88;;
41719;SDS011;27405;53.316;-6.294;2024-03-08T11:53:07;49.22;;;27.58;;
41719;SDS011;27405;53.316;-6.294;2024-03-08T11:55:33;46.33;;;27.70;;
41719;SDS011;27405;53.316;-6.294;2024-03-08T11:58:03;52.45;;;27.73;;
41719;SDS011;27405;53.316;-6.294;2024-03-08T12:00:32;44.35;;;27.60;;
41719;SDS011;27405;53.316;-6.294;2024-03-08T12:03:04;48.92;;;28.05;;
41719;SDS011;27405;53.316;-6.294;2024-03-08T12:05:32;45.10;;;26.83;;
41719;SDS011;27405;53.316;-6.294;2024-03-08T12:07:59;47.70;;;26.95;;
41719;SDS011;27405;53.316;-6.294;2024-03-08T12:10:27;46.75;;;26.60;;
41719;SDS011;27405;53.316;-6.294;2024-03-08T12:12:53;47.08;;;26.50;;
41719;SDS011;27405;53.316;-6.294;2024-03-08T12:18:43;46.25;;;27.92;;
41719;SDS011;27405;53.316;-6.294;2024-03-08T12:21:11;45.78;;;26.90;;
41719;SDS011;27405;53.316;-6.294;2024-03-08T12:23:45;48.58;;;27.52;;
41719;SDS011;27405;53.316;-6.294;2024-03-08T12:29:33;47.10;;;26.98;;
41719;SDS011;27405;53.316;-6.294;2024-03-08T12:31:59;47.67;;;25.30;;
41719;SDS011;27405;53.316;-6.294;2024-03-08T12:37:54;45.10;;;25.75;;
41719;SDS011;27405;53.316;-6.294;2024-03-08T12:40:28;45.08;;;27.25;;
41719;SDS011;27405;53.316;-6.294;2024-03-08T12:46:19;49.85;;;26.25;;
41719;SDS011;27405;53.316;-6.294;2024-03-08T12:48:46;51.40;;;27.77;;
41719;SDS011;27405;53.316;-6.294;2024-03-08T12:51:19;44.72;;;26.50;;
41719;SDS011;27405;53.316;-6.294;2024-03-08T12:53:46;46.03;;;26.95;;
41719;SDS011;27405;53.316;-6.294;2024-03-08T12:56:12;45.47;;;26.70;;
41719;SDS011;27405;53.316;-6.294;2024-03-08T12:58:45;44.28;;;27.75;;
41719;SDS011;27405;53.316;-6.294;2024-03-08T13:01:11;49.67;;;27.08;;
41719;SDS011;27405;53.316;-6.294;2024-03-08T13:03:38;44.30;;;26.45;;
41719;SDS011;27405;53.316;-6.294;2024-03-08T13:09:26;49.85;;;25.98;;
41719;SDS011;27405;53.316;-6.294;2024-03-08T13:11:52;46.40;;;25.58;;
41719;SDS011;27405;53.316;-6.294;2024-03-08T13:14:20;46.33;;;26.60;;
41719;SDS011;27405;53.316;-6.294;2024-03-08T13:20:08;47.30;;;27.40;;
41719;SDS011;27405;53.316;-6.294;2024-03-08T13:22:41;43.25;;;26.13;;
41719;SDS011;27405;53.316;-6.294;2024-03-08T13:25:07;46.80;;;28.00;;
41719;SDS011;27405;53.316;-6.294;2024-03-08T13:27:41;43.65;;;25.92;;
41719;SDS011;27405;53.316;-6.294;2024-03-08T13:30:11;44.85;;;26.70;;
41719;SDS011;27405;53.316;-6.294;2024-03-08T13:32:44;48.65;;;27.02;;
41719;SDS011;27405;53.316;-6.294;2024-03-08T13:35:11;45.42;;;27.55;;
41719;SDS011;27405;53.316;-6.294;2024-03-08T13:37:41;49.95;;;27.92;;
41719;SDS011;27405;53.316;-6.294;2024-03-08T13:40:07;44.35;;;26.73;;
41719;SDS011;27405;53.316;-6.294;2024-03-08T13:42:41;42.95;;;26.17;;
41719;SDS011;27405;53.316;-6.294;2024-03-08T13:45:10;41.90;;;25.80;;
41719;SDS011;27405;53.316;-6.294;2024-03-08T13:47:37;45.22;;;25.67;;
41719;SDS011;27405;53.316;-6.294;2024-03-08T13:50:05;41.78;;;25.08;;
41719;SDS011;27405;53.316;-6.294;2024-03-08T13:52:38;42.42;;;25.77;;
41719;SDS011;27405;53.316;-6.294;2024-03-08T13:55:05;43.15;;;26.70;;
41719;SDS011;27405;53.316;-6.294;2024-03-08T13:57:31;43.10;;;25.33;;
41719;SDS011;27405;53.316;-6.294;2024-03-08T13:59:58;40.90;;;25.40;;
41719;SDS011;27405;53.316;-6.294;2024-03-08T14:02:25;45.90;;;24.42;;
41719;SDS011;27405;53.316;-6.294;2024-03-08T14:04:53;38.97;;;23.15;;
41719;SDS011;27405;53.316;-6.294;2024-03-08T14:07:22;45.33;;;24.63;;
41719;SDS011;27405;53.316;-6.294;2024-03-08T14:13:10;43.35;;;24.45;;
41719;SDS011;27405;53.316;-6.294;2024-03-08T14:15:37;41.38;;;23.45;;
41719;SDS011;27405;53.316;-6.294;2024-03-08T14:18:07;39.33;;;22.98;;
41719;SDS011;27405;53.316;-6.294;2024-03-08T14:20:33;40.08;;;23.90;;
41719;SDS011;27405;53.316;-6.294;2024-03-08T14:22:59;37.92;;;22.95;;
41719;SDS011;27405;53.316;-6.294;2024-03-08T14:25:25;42.50;;;23.25;;
41719;SDS011;27405;53.316;-6.294;2024-03-08T14:27:52;44.47;;;25.50;;
41719;SDS011;27405;53.316;-6.294;2024-03-08T14:30:19;46.78;;;29.05;;
41719;SDS011;27405;53.316;-6.294;2024-03-08T14:33:15;44.35;;;24.45;;
41719;SDS011;27405;53.316;-6.294;2024-03-08T14:35:41;45.15;;;23.85;;
41719;SDS011;27405;53.316;-6.294;2024-03-08T14:38:12;39.67;;;23.20;;
41719;SDS011;27405;53.316;-6.294;2024-03-08T14:40:38;39.30;;;23.30;;
41719;SDS011;27405;53.316;-6.294;2024-03-08T14:43:04;38.15;;;23.38;;
41719;SDS011;27405;53.316;-6.294;2024-03-08T14:45:31;39.50;;;24.33;;
41719;SDS011;27405;53.316;-6.294;2024-03-08T14:47:57;40.13;;;23.48;;
41719;SDS011;27405;53.316;-6.294;2024-03-08T14:50:24;39.30;;;24.23;;
41719;SDS011;27405;53.316;-6.294;2024-03-08T14:52:51;40.53;;;22.23;;
41719;SDS011;27405;53.316;-6.294;2024-03-08T14:55:18;39.10;;;23.48;;
41719;SDS011;27405;53.316;-6.294;2024-03-08T14:57:50;38.40;;;22.42;;
41719;SDS011;27405;53.316;-6.294;2024-03-08T15:00:17;39.85;;;23.67;;
41719;SDS011;27405;53.316;-6.294;2024-03-08T15:03:00;43.08;;;25.67;;
41719;SDS011;27405;53.316;-6.294;2024-03-08T15:05:35;41.67;;;25.08;;
41719;SDS011;27405;53.316;-6.294;2024-03-08T15:08:05;39.85;;;23.42;;
41719;SDS011;27405;53.316;-6.294;2024-03-08T15:10:35;39.33;;;23.27;;
41719;SDS011;27405;53.316;-6.294;2024-03-08T15:13:01;39.30;;;22.92;;
41719;SDS011;27405;53.316;-6.294;2024-03-08T15:15:33;40.10;;;22.98;;
41719;SDS011;27405;53.316;-6.294;2024-03-08T15:17:59;37.28;;;24.10;;
41719;SDS011;27405;53.316;-6.294;2024-03-08T15:20:25;39.10;;;24.33;;
41719;SDS011;27405;53.316;-6.294;2024-03-08T15:25:20;39.35;;;23.55;;
41719;SDS011;27405;53.316;-6.294;2024-03-08T15:27:53;38.17;;;23.23;;
41719;SDS011;27405;53.316;-6.294;2024-03-08T15:30:21;42.40;;;24.00;;
41719;SDS011;27405;53.316;-6.294;2024-03-08T15:32:51;44.85;;;23.42;;
41719;SDS011;27405;53.316;-6.294;2024-03-08T15:35:28;39.50;;;23.02;;
41719;SDS011;27405;53.316;-6.294;2024-03-08T15:37:54;37.75;;;23.77;;